sensor_id;sensor_type;location;lat;lon;timestamp;P1;durP1;ratioP1;P2;durP2;ratioP2
60060;SDS011;45933;51.336;12.612;2024-02-26T00:01:25;32.23;;;19.23;;
60060;SDS011;45933;51.336;12.612;2024-02-26T00:03:50;35.27;;;21.47;;
60060;SDS011;45933;51.336;12.612;2024-02-26T00:06:15;38.40;;;22.17;;
60060;SDS011;45933;51.336;12.612;2024-02-26T00:08:41;24.70;;;15.70;;
60060;SDS011;45933;51.336;12.612;2024-02-26T00:11:06;24.50;;;15.13;;
60060;SDS011;45933;51.336;12.612;2024-02-26T00:13:31;28.10;;;17.93;;
60060;SDS011;45933;51.336;12.612;2024-02-26T00:15:57;34.87;;;21.50;;
60060;SDS011;45933;51.336;12.612;2024-02-26T00:18:22;21.83;;;14.80;;
60060;SDS011;45933;51.336;12.612;2024-02-26T00:20:47;45.60;;;27.47;;
60060;SDS011;45933;51.336;12.612;2024-02-26T00:23:14;29.03;;;19.70;;
60060;SDS011;45933;51.336;12.612;2024-02-26T00:25:40;31.83;;;19.33;;
60060;SDS011;45933;51.336;12.612;2024-02-26T00:28:07;21.00;;;14.17;;
60060;SDS011;45933;51.336;12.612;2024-02-26T00:30:33;23.30;;;14.37;;
60060;SDS011;45933;51.336;12.612;2024-02-26T00:32:58;19.00;;;12.93;;
60060;SDS011;45933;51.336;12.612;2024-02-26T00:35:23;26.97;;;17.13;;
60060;SDS011;45933;51.336;12.612;2024-02-26T00:37:49;42.20;;;23.80;;
60060;SDS011;45933;51.336;12.612;2024-02-26T00:40:14;19.73;;;13.43;;
60060;SDS011;45933;51.336;12.612;2024-02-26T00:42:40;17.20;;;12.07;;
60060;SDS011;45933;51.336;12.612;2024-02-26T00:45:10;18.07;;;11.83;;
60060;SDS011;45933;51.336;12.612;2024-02-26T00:47:35;20.80;;;12.03;;
60060;SDS011;45933;51.336;12.612;2024-02-26T00:53:10;35.43;;;20.73;;
60060;SDS011;45933;51.336;12.612;2024-02-26T00:55:35;46.37;;;26.57;;
60060;SDS011;45933;51.336;12.612;2024-02-26T00:58:00;52.57;;;30.30;;
60060;SDS011;45933;51.336;12.612;2024-02-26T01:00:26;25.63;;;16.60;;
60060;SDS011;45933;51.336;12.612;2024-02-26T01:02:51;26.87;;;16.87;;
60060;SDS011;45933;51.336;12.612;2024-02-26T01:05:16;23.87;;;15.47;;
60060;SDS011;45933;51.336;12.612;2024-02-26T01:07:42;29.37;;;17.90;;
60060;SDS011;45933;51.336;12.612;2024-02-26T01:10:07;32.20;;;19.07;;
60060;SDS011;45933;51.336;12.612;2024-02-26T01:12:33;66.10;;;35.17;;
60060;SDS011;45933;51.336;12.612;2024-02-26T01:14:59;76.40;;;42.73;;
60060;SDS011;45933;51.336;12.612;2024-02-26T01:17:25;56.83;;;32.97;;
60060;SDS011;45933;51.336;12.612;2024-02-26T01:19:50;33.27;;;22.30;;
60060;SDS011;45933;51.336;12.612;2024-02-26T01:22:15;41.37;;;31.00;;
60060;SDS011;45933;51.336;12.612;2024-02-26T01:24:41;39.67;;;30.60;;
60060;SDS011;45933;51.336;12.612;2024-02-26T01:27:06;25.80;;;20.60;;
60060;SDS011;45933;51.336;12.612;2024-02-26T01:29:35;28.43;;;24.20;;
60060;SDS011;45933;51.336;12.612;2024-02-26T01:32:00;24.83;;;21.10;;
60060;SDS011;45933;51.336;12.612;2024-02-26T01:34:26;21.67;;;16.77;;
60060;SDS011;45933;51.336;12.612;2024-02-26T01:36:51;18.60;;;14.33;;
60060;SDS011;45933;51.336;12.612;2024-02-26T01:39:17;13.87;;;11.00;;
60060;SDS011;45933;51.336;12.612;2024-02-26T01:41:42;14.53;;;12.10;;
60060;SDS011;45933;51.336;12.612;2024-02-26T01:44:07;13.80;;;10.20;;
60060;SDS011;45933;51.336;12.612;2024-02-26T01:46:33;12.43;;;8.77;;
60060;SDS011;45933;51.336;12.612;2024-02-26T01:49:01;12.30;;;9.20;;
60060;SDS011;45933;51.336;12.612;2024-02-26T01:51:27;12.07;;;8.43;;
60060;SDS011;45933;51.336;12.612;2024-02-26T01:53:54;13.00;;;9.13;;
60060;SDS011;45933;51.336;12.612;2024-02-26T01:56:20;12.77;;;8.83;;
60060;SDS011;45933;51.336;12.612;2024-02-26T01:58:47;10.83;;;8.23;;
60060;SDS011;45933;51.336;12.612;2024-02-26T02:01:13;13.13;;;9.13;;
60060;SDS011;45933;51.336;12.612;2024-02-26T02:03:41;10.27;;;8.00;;
60060;SDS011;45933;51.336;12.612;2024-02-26T02:06:08;10.63;;;7.47;;
60060;SDS011;45933;51.336;12.612;2024-02-26T02:08:33;9.27;;;7.00;;
60060;SDS011;45933;51.336;12.612;2024-02-26T02:11:00;11.43;;;7.70;;
60060;SDS011;45933;51.336;12.612;2024-02-26T02:13:25;11.90;;;7.53;;
60060;SDS011;45933;51.336;12.612;2024-02-26T02:15:51;11.67;;;8.40;;
60060;SDS011;45933;51.336;12.612;2024-02-26T02:18:17;12.50;;;8.33;;
60060;SDS011;45933;51.336;12.612;2024-02-26T02:20:42;13.47;;;8.87;;
60060;SDS011;45933;51.336;12.612;2024-02-26T02:23:08;13.90;;;9.67;;
60060;SDS011;45933;51.336;12.612;2024-02-26T02:25:33;13.07;;;9.47;;
60060;SDS011;45933;51.336;12.612;2024-02-26T02:27:58;13.57;;;8.77;;
60060;SDS011;45933;51.336;12.612;2024-02-26T02:30:25;13.97;;;10.17;;
60060;SDS011;45933;51.336;12.612;2024-02-26T02:32:53;17.20;;;11.87;;
60060;SDS011;45933;51.336;12.612;2024-02-26T02:35:18;17.50;;;12.20;;
60060;SDS011;45933;51.336;12.612;2024-02-26T02:37:44;19.57;;;12.90;;
60060;SDS011;45933;51.336;12.612;2024-02-26T02:40:09;20.17;;;12.83;;
60060;SDS011;45933;51.336;12.612;2024-02-26T02:42:34;19.37;;;13.23;;
60060;SDS011;45933;51.336;12.612;2024-02-26T02:45:00;19.50;;;14.23;;
60060;SDS011;45933;51.336;12.612;2024-02-26T02:47:25;19.27;;;14.13;;
60060;SDS011;45933;51.336;12.612;2024-02-26T02:49:51;21.73;;;15.37;;
60060;SDS011;45933;51.336;12.612;2024-02-26T02:52:16;24.07;;;16.17;;
60060;SDS011;45933;51.336;12.612;2024-02-26T02:54:41;23.40;;;17.27;;
60060;SDS011;45933;51.336;12.612;2024-02-26T02:57:07;24.83;;;17.47;;
60060;SDS011;45933;51.336;12.612;2024-02-26T02:59:33;21.80;;;15.77;;
60060;SDS011;45933;51.336;12.612;2024-02-26T03:01:59;21.80;;;16.53;;
60060;SDS011;45933;51.336;12.612;2024-02-26T03:04:24;24.30;;;17.23;;
60060;SDS011;45933;51.336;12.612;2024-02-26T03:06:49;22.20;;;16.20;;
60060;SDS011;45933;51.336;12.612;2024-02-26T03:09:15;22.27;;;17.07;;
60060;SDS011;45933;51.336;12.612;2024-02-26T03:11:40;24.20;;;16.37;;
60060;SDS011;45933;51.336;12.612;2024-02-26T03:14:05;25.50;;;17.77;;
60060;SDS011;45933;51.336;12.612;2024-02-26T03:16:31;24.63;;;17.93;;
60060;SDS011;45933;51.336;12.612;2024-02-26T03:18:57;25.60;;;17.27;;
60060;SDS011;45933;51.336;12.612;2024-02-26T03:21:23;24.97;;;17.33;;
60060;SDS011;45933;51.336;12.612;2024-02-26T03:23:50;23.27;;;17.47;;
60060;SDS011;45933;51.336;12.612;2024-02-26T03:26:15;23.93;;;17.13;;
60060;SDS011;45933;51.336;12.612;2024-02-26T03:28:40;24.13;;;17.37;;
60060;SDS011;45933;51.336;12.612;2024-02-26T03:31:06;26.67;;;18.20;;
60060;SDS011;45933;51.336;12.612;2024-02-26T03:33:31;23.77;;;17.47;;
60060;SDS011;45933;51.336;12.612;2024-02-26T03:35:56;25.93;;;17.97;;
60060;SDS011;45933;51.336;12.612;2024-02-26T03:38:22;25.80;;;17.47;;
60060;SDS011;45933;51.336;12.612;2024-02-26T03:40:47;25.80;;;17.50;;
60060;SDS011;45933;51.336;12.612;2024-02-26T03:43:12;24.67;;;17.67;;
60060;SDS011;45933;51.336;12.612;2024-02-26T03:45:38;25.33;;;17.33;;
60060;SDS011;45933;51.336;12.612;2024-02-26T03:48:03;23.23;;;17.53;;
60060;SDS011;45933;51.336;12.612;2024-02-26T03:50:28;24.07;;;17.57;;
60060;SDS011;45933;51.336;12.612;2024-02-26T03:52:54;23.33;;;17.47;;
60060;SDS011;45933;51.336;12.612;2024-02-26T03:55:19;26.97;;;18.60;;
60060;SDS011;45933;51.336;12.612;2024-02-26T03:57:49;26.50;;;17.10;;
60060;SDS011;45933;51.336;12.612;2024-02-26T04:00:15;24.60;;;18.13;;
60060;SDS011;45933;51.336;12.612;2024-02-26T04:02:40;26.17;;;18.40;;
60060;SDS011;45933;51.336;12.612;2024-02-26T04:05:08;25.87;;;18.50;;
60060;SDS011;45933;51.336;12.612;2024-02-26T04:07:35;25.30;;;17.93;;
60060;SDS011;45933;51.336;12.612;2024-02-26T04:10:00;24.53;;;16.97;;
60060;SDS011;45933;51.336;12.612;2024-02-26T04:12:28;26.57;;;17.97;;
60060;SDS011;45933;51.336;12.612;2024-02-26T04:14:53;25.17;;;18.50;;
60060;SDS011;45933;51.336;12.612;2024-02-26T04:17:19;26.80;;;18.43;;
60060;SDS011;45933;51.336;12.612;2024-02-26T04:19:44;22.93;;;17.67;;
60060;SDS011;45933;51.336;12.612;2024-02-26T04:22:09;26.90;;;18.43;;
60060;SDS011;45933;51.336;12.612;2024-02-26T04:24:35;24.30;;;18.23;;
60060;SDS011;45933;51.336;12.612;2024-02-26T04:27:01;26.70;;;17.93;;
60060;SDS011;45933;51.336;12.612;2024-02-26T04:29:26;26.03;;;18.50;;
60060;SDS011;45933;51.336;12.612;2024-02-26T04:31:51;26.83;;;16.83;;
60060;SDS011;45933;51.336;12.612;2024-02-26T04:34:16;27.07;;;17.40;;
60060;SDS011;45933;51.336;12.612;2024-02-26T04:36:42;24.03;;;17.90;;
60060;SDS011;45933;51.336;12.612;2024-02-26T04:39:07;25.70;;;18.13;;
60060;SDS011;45933;51.336;12.612;2024-02-26T04:41:33;24.17;;;17.07;;
60060;SDS011;45933;51.336;12.612;2024-02-26T04:43:58;25.43;;;18.13;;
60060;SDS011;45933;51.336;12.612;2024-02-26T04:46:23;25.83;;;18.07;;
60060;SDS011;45933;51.336;12.612;2024-02-26T04:48:49;24.63;;;17.40;;
60060;SDS011;45933;51.336;12.612;2024-02-26T04:51:14;21.83;;;16.07;;
60060;SDS011;45933;51.336;12.612;2024-02-26T04:53:39;22.10;;;16.63;;
60060;SDS011;45933;51.336;12.612;2024-02-26T04:56:05;25.60;;;16.73;;
60060;SDS011;45933;51.336;12.612;2024-02-26T04:58:30;21.60;;;16.03;;
60060;SDS011;45933;51.336;12.612;2024-02-26T05:00:55;22.13;;;16.17;;
60060;SDS011;45933;51.336;12.612;2024-02-26T05:03:21;22.27;;;15.93;;
60060;SDS011;45933;51.336;12.612;2024-02-26T05:05:46;26.00;;;16.83;;
60060;SDS011;45933;51.336;12.612;2024-02-26T05:08:12;24.77;;;16.33;;
60060;SDS011;45933;51.336;12.612;2024-02-26T05:10:37;23.57;;;16.23;;
60060;SDS011;45933;51.336;12.612;2024-02-26T05:13:05;20.60;;;14.90;;
60060;SDS011;45933;51.336;12.612;2024-02-26T05:15:34;22.07;;;15.50;;
60060;SDS011;45933;51.336;12.612;2024-02-26T05:17:59;22.30;;;15.87;;
60060;SDS011;45933;51.336;12.612;2024-02-26T05:20:25;21.07;;;15.00;;
60060;SDS011;45933;51.336;12.612;2024-02-26T05:22:50;22.03;;;15.43;;
60060;SDS011;45933;51.336;12.612;2024-02-26T05:25:15;20.33;;;14.97;;
60060;SDS011;45933;51.336;12.612;2024-02-26T05:27:41;21.10;;;14.73;;
60060;SDS011;45933;51.336;12.612;2024-02-26T05:30:07;22.20;;;15.17;;
60060;SDS011;45933;51.336;12.612;2024-02-26T05:32:32;20.57;;;14.90;;
60060;SDS011;45933;51.336;12.612;2024-02-26T05:34:57;21.40;;;15.73;;
60060;SDS011;45933;51.336;12.612;2024-02-26T05:37:23;23.17;;;14.87;;
60060;SDS011;45933;51.336;12.612;2024-02-26T05:39:48;20.77;;;14.17;;
60060;SDS011;45933;51.336;12.612;2024-02-26T05:42:13;21.30;;;14.90;;
60060;SDS011;45933;51.336;12.612;2024-02-26T05:44:38;22.70;;;15.27;;
60060;SDS011;45933;51.336;12.612;2024-02-26T05:47:04;25.30;;;16.80;;
60060;SDS011;45933;51.336;12.612;2024-02-26T05:49:29;24.70;;;16.93;;
60060;SDS011;45933;51.336;12.612;2024-02-26T05:51:55;21.93;;;15.43;;
60060;SDS011;45933;51.336;12.612;2024-02-26T05:54:20;19.87;;;14.83;;
60060;SDS011;45933;51.336;12.612;2024-02-26T05:56:45;20.00;;;13.97;;
60060;SDS011;45933;51.336;12.612;2024-02-26T05:59:10;21.17;;;15.23;;
60060;SDS011;45933;51.336;12.612;2024-02-26T06:01:36;21.60;;;14.70;;
60060;SDS011;45933;51.336;12.612;2024-02-26T06:04:01;19.90;;;14.90;;
60060;SDS011;45933;51.336;12.612;2024-02-26T06:06:26;19.97;;;14.73;;
60060;SDS011;45933;51.336;12.612;2024-02-26T06:08:52;22.37;;;16.00;;
60060;SDS011;45933;51.336;12.612;2024-02-26T06:11:17;19.77;;;13.70;;
60060;SDS011;45933;51.336;12.612;2024-02-26T06:13:43;21.63;;;15.03;;
60060;SDS011;45933;51.336;12.612;2024-02-26T06:16:08;20.33;;;14.23;;
60060;SDS011;45933;51.336;12.612;2024-02-26T06:18:33;20.80;;;14.33;;
60060;SDS011;45933;51.336;12.612;2024-02-26T06:20:59;22.33;;;14.83;;
60060;SDS011;45933;51.336;12.612;2024-02-26T06:23:25;20.30;;;14.57;;
60060;SDS011;45933;51.336;12.612;2024-02-26T06:25:51;21.50;;;14.67;;
60060;SDS011;45933;51.336;12.612;2024-02-26T06:28:17;20.93;;;15.33;;
60060;SDS011;45933;51.336;12.612;2024-02-26T06:30:42;21.00;;;14.47;;
60060;SDS011;45933;51.336;12.612;2024-02-26T06:33:07;24.07;;;15.73;;
60060;SDS011;45933;51.336;12.612;2024-02-26T06:35:33;21.57;;;15.83;;
60060;SDS011;45933;51.336;12.612;2024-02-26T06:37:58;21.10;;;16.10;;
60060;SDS011;45933;51.336;12.612;2024-02-26T06:40:23;22.40;;;15.73;;
60060;SDS011;45933;51.336;12.612;2024-02-26T06:42:48;24.57;;;15.83;;
60060;SDS011;45933;51.336;12.612;2024-02-26T06:45:15;20.97;;;15.07;;
60060;SDS011;45933;51.336;12.612;2024-02-26T06:47:40;20.50;;;15.33;;
60060;SDS011;45933;51.336;12.612;2024-02-26T06:50:06;23.50;;;15.97;;
60060;SDS011;45933;51.336;12.612;2024-02-26T06:52:31;20.87;;;15.53;;
60060;SDS011;45933;51.336;12.612;2024-02-26T06:54:56;20.43;;;14.93;;
60060;SDS011;45933;51.336;12.612;2024-02-26T06:57:22;22.40;;;14.97;;
60060;SDS011;45933;51.336;12.612;2024-02-26T06:59:47;22.27;;;16.50;;
60060;SDS011;45933;51.336;12.612;2024-02-26T07:02:15;19.63;;;14.70;;
60060;SDS011;45933;51.336;12.612;2024-02-26T07:04:44;21.20;;;15.50;;
60060;SDS011;45933;51.336;12.612;2024-02-26T07:07:09;22.43;;;15.47;;
60060;SDS011;45933;51.336;12.612;2024-02-26T07:09:35;22.90;;;15.40;;
60060;SDS011;45933;51.336;12.612;2024-02-26T07:12:01;20.73;;;14.90;;
60060;SDS011;45933;51.336;12.612;2024-02-26T07:14:26;23.33;;;14.80;;
60060;SDS011;45933;51.336;12.612;2024-02-26T07:16:51;21.60;;;15.10;;
60060;SDS011;45933;51.336;12.612;2024-02-26T07:19:17;22.33;;;15.63;;
60060;SDS011;45933;51.336;12.612;2024-02-26T07:21:42;21.63;;;14.57;;
60060;SDS011;45933;51.336;12.612;2024-02-26T07:24:08;21.60;;;15.30;;
60060;SDS011;45933;51.336;12.612;2024-02-26T07:26:33;19.47;;;15.10;;
60060;SDS011;45933;51.336;12.612;2024-02-26T07:29:01;19.93;;;14.90;;
60060;SDS011;45933;51.336;12.612;2024-02-26T07:31:26;20.80;;;15.33;;
60060;SDS011;45933;51.336;12.612;2024-02-26T07:33:52;19.67;;;14.17;;
60060;SDS011;45933;51.336;12.612;2024-02-26T07:36:17;17.50;;;13.13;;
60060;SDS011;45933;51.336;12.612;2024-02-26T07:38:42;19.10;;;13.10;;
60060;SDS011;45933;51.336;12.612;2024-02-26T07:41:07;17.17;;;12.97;;
60060;SDS011;45933;51.336;12.612;2024-02-26T07:43:33;18.87;;;13.17;;
60060;SDS011;45933;51.336;12.612;2024-02-26T07:45:58;16.70;;;12.37;;
60060;SDS011;45933;51.336;12.612;2024-02-26T07:48:24;18.47;;;12.80;;
60060;SDS011;45933;51.336;12.612;2024-02-26T07:50:49;20.30;;;12.93;;
60060;SDS011;45933;51.336;12.612;2024-02-26T07:53:14;19.47;;;13.37;;
60060;SDS011;45933;51.336;12.612;2024-02-26T07:55:40;18.17;;;13.10;;
60060;SDS011;45933;51.336;12.612;2024-02-26T07:58:05;20.57;;;12.47;;
60060;SDS011;45933;51.336;12.612;2024-02-26T08:00:31;18.33;;;12.63;;
60060;SDS011;45933;51.336;12.612;2024-02-26T08:02:56;20.03;;;11.90;;
60060;SDS011;45933;51.336;12.612;2024-02-26T08:05:22;15.03;;;10.97;;
60060;SDS011;45933;51.336;12.612;2024-02-26T08:07:50;15.73;;;11.57;;
60060;SDS011;45933;51.336;12.612;2024-02-26T08:10:15;15.73;;;11.50;;
60060;SDS011;45933;51.336;12.612;2024-02-26T08:12:41;14.97;;;10.17;;
60060;SDS011;45933;51.336;12.612;2024-02-26T08:15:06;15.27;;;9.87;;
60060;SDS011;45933;51.336;12.612;2024-02-26T08:17:32;14.67;;;10.23;;
60060;SDS011;45933;51.336;12.612;2024-02-26T08:19:58;16.03;;;9.87;;
60060;SDS011;45933;51.336;12.612;2024-02-26T08:22:24;15.93;;;9.63;;
60060;SDS011;45933;51.336;12.612;2024-02-26T08:24:49;12.17;;;9.37;;
60060;SDS011;45933;51.336;12.612;2024-02-26T08:27:14;13.97;;;9.80;;
60060;SDS011;45933;51.336;12.612;2024-02-26T08:29:40;17.30;;;9.63;;
60060;SDS011;45933;51.336;12.612;2024-02-26T08:32:05;12.13;;;8.97;;
60060;SDS011;45933;51.336;12.612;2024-02-26T08:34:32;11.00;;;8.50;;
60060;SDS011;45933;51.336;12.612;2024-02-26T08:36:57;13.47;;;8.80;;
60060;SDS011;45933;51.336;12.612;2024-02-26T08:39:22;13.97;;;8.33;;
60060;SDS011;45933;51.336;12.612;2024-02-26T08:41:47;11.88;;;7.55;;
60060;SDS011;45933;51.336;12.612;2024-02-26T08:44:13;12.00;;;7.75;;
60060;SDS011;45933;51.336;12.612;2024-02-26T08:46:38;12.27;;;7.03;;
60060;SDS011;45933;51.336;12.612;2024-02-26T08:49:03;8.65;;;6.80;;
60060;SDS011;45933;51.336;12.612;2024-02-26T08:51:29;10.90;;;6.85;;
60060;SDS011;45933;51.336;12.612;2024-02-26T08:53:54;8.00;;;6.68;;
60060;SDS011;45933;51.336;12.612;2024-02-26T08:56:19;8.38;;;6.88;;
60060;SDS011;45933;51.336;12.612;2024-02-26T08:58:46;8.90;;;6.38;;
60060;SDS011;45933;51.336;12.612;2024-02-26T09:01:13;8.48;;;5.95;;
60060;SDS011;45933;51.336;12.612;2024-02-26T09:03:42;7.75;;;6.28;;
60060;SDS011;45933;51.336;12.612;2024-02-26T09:06:07;9.27;;;6.07;;
60060;SDS011;45933;51.336;12.612;2024-02-26T09:08:32;7.85;;;6.25;;
60060;SDS011;45933;51.336;12.612;2024-02-26T09:10:58;8.02;;;5.97;;
60060;SDS011;45933;51.336;12.612;2024-02-26T09:13:23;8.20;;;6.20;;
60060;SDS011;45933;51.336;12.612;2024-02-26T09:15:49;8.57;;;6.13;;
60060;SDS011;45933;51.336;12.612;2024-02-26T09:18:14;7.38;;;5.75;;
60060;SDS011;45933;51.336;12.612;2024-02-26T09:20:40;6.95;;;5.25;;
60060;SDS011;45933;51.336;12.612;2024-02-26T09:23:05;7.55;;;5.63;;
60060;SDS011;45933;51.336;12.612;2024-02-26T09:25:31;12.57;;;5.85;;
60060;SDS011;45933;51.336;12.612;2024-02-26T09:27:58;9.15;;;5.97;;
60060;SDS011;45933;51.336;12.612;2024-02-26T09:30:23;7.03;;;5.20;;
60060;SDS011;45933;51.336;12.612;2024-02-26T09:32:48;8.85;;;5.63;;
60060;SDS011;45933;51.336;12.612;2024-02-26T09:35:14;8.23;;;4.80;;
60060;SDS011;45933;51.336;12.612;2024-02-26T09:37:39;8.40;;;4.97;;
60060;SDS011;45933;51.336;12.612;2024-02-26T09:40:04;7.78;;;4.43;;
60060;SDS011;45933;51.336;12.612;2024-02-26T09:42:31;6.28;;;4.95;;
60060;SDS011;45933;51.336;12.612;2024-02-26T09:44:58;7.13;;;4.95;;
60060;SDS011;45933;51.336;12.612;2024-02-26T09:47:26;7.10;;;4.65;;
60060;SDS011;45933;51.336;12.612;2024-02-26T09:49:53;6.03;;;4.20;;
60060;SDS011;45933;51.336;12.612;2024-02-26T09:52:21;6.05;;;5.00;;
60060;SDS011;45933;51.336;12.612;2024-02-26T09:54:48;8.15;;;4.93;;
60060;SDS011;45933;51.336;12.612;2024-02-26T09:57:14;6.50;;;4.68;;
60060;SDS011;45933;51.336;12.612;2024-02-26T09:59:49;4.75;;;3.90;;
60060;SDS011;45933;51.336;12.612;2024-02-26T10:02:18;5.72;;;3.90;;
60060;SDS011;45933;51.336;12.612;2024-02-26T10:04:45;6.30;;;4.15;;
60060;SDS011;45933;51.336;12.612;2024-02-26T10:07:12;5.00;;;4.03;;
60060;SDS011;45933;51.336;12.612;2024-02-26T10:09:38;7.78;;;4.13;;
60060;SDS011;45933;51.336;12.612;2024-02-26T10:12:04;6.32;;;4.35;;
60060;SDS011;45933;51.336;12.612;2024-02-26T10:14:30;5.03;;;4.10;;
60060;SDS011;45933;51.336;12.612;2024-02-26T10:16:56;7.28;;;4.45;;
60060;SDS011;45933;51.336;12.612;2024-02-26T10:19:28;7.82;;;4.57;;
60060;SDS011;45933;51.336;12.612;2024-02-26T10:21:58;5.47;;;3.92;;
60060;SDS011;45933;51.336;12.612;2024-02-26T10:24:24;5.43;;;3.85;;
60060;SDS011;45933;51.336;12.612;2024-02-26T10:26:50;4.32;;;3.92;;
60060;SDS011;45933;51.336;12.612;2024-02-26T10:29:17;4.55;;;3.75;;
60060;SDS011;45933;51.336;12.612;2024-02-26T10:31:43;6.00;;;3.90;;
60060;SDS011;45933;51.336;12.612;2024-02-26T10:34:09;6.75;;;5.05;;
60060;SDS011;45933;51.336;12.612;2024-02-26T10:36:35;4.57;;;3.80;;
60060;SDS011;45933;51.336;12.612;2024-02-26T10:39:04;4.93;;;3.70;;
60060;SDS011;45933;51.336;12.612;2024-02-26T10:41:29;8.35;;;4.45;;
60060;SDS011;45933;51.336;12.612;2024-02-26T10:43:55;6.63;;;4.70;;
60060;SDS011;45933;51.336;12.612;2024-02-26T10:46:20;5.13;;;4.00;;
60060;SDS011;45933;51.336;12.612;2024-02-26T10:48:49;6.10;;;4.90;;
60060;SDS011;45933;51.336;12.612;2024-02-26T10:51:16;5.80;;;4.45;;
60060;SDS011;45933;51.336;12.612;2024-02-26T10:53:54;6.90;;;4.75;;
60060;SDS011;45933;51.336;12.612;2024-02-26T10:56:27;7.18;;;5.30;;
60060;SDS011;45933;51.336;12.612;2024-02-26T10:58:54;7.10;;;4.93;;
60060;SDS011;45933;51.336;12.612;2024-02-26T11:01:20;9.82;;;5.18;;
60060;SDS011;45933;51.336;12.612;2024-02-26T11:03:50;7.10;;;5.15;;
60060;SDS011;45933;51.336;12.612;2024-02-26T11:06:20;7.13;;;5.40;;
60060;SDS011;45933;51.336;12.612;2024-02-26T11:08:50;8.60;;;5.75;;
60060;SDS011;45933;51.336;12.612;2024-02-26T11:11:16;8.82;;;6.22;;
60060;SDS011;45933;51.336;12.612;2024-02-26T11:13:42;8.00;;;6.25;;
60060;SDS011;45933;51.336;12.612;2024-02-26T11:16:13;6.65;;;5.78;;
60060;SDS011;45933;51.336;12.612;2024-02-26T11:18:39;11.77;;;6.15;;
60060;SDS011;45933;51.336;12.612;2024-02-26T11:21:07;8.23;;;6.03;;
60060;SDS011;45933;51.336;12.612;2024-02-26T11:23:33;9.95;;;6.70;;
60060;SDS011;45933;51.336;12.612;2024-02-26T11:26:01;9.25;;;6.60;;
60060;SDS011;45933;51.336;12.612;2024-02-26T11:28:29;7.38;;;6.05;;
60060;SDS011;45933;51.336;12.612;2024-02-26T11:30:57;11.10;;;7.45;;
60060;SDS011;45933;51.336;12.612;2024-02-26T11:33:25;9.75;;;6.72;;
60060;SDS011;45933;51.336;12.612;2024-02-26T11:35:51;9.63;;;6.22;;
60060;SDS011;45933;51.336;12.612;2024-02-26T11:38:17;7.25;;;6.13;;
60060;SDS011;45933;51.336;12.612;2024-02-26T11:40:46;9.90;;;6.40;;
60060;SDS011;45933;51.336;12.612;2024-02-26T11:43:11;8.35;;;6.28;;
60060;SDS011;45933;51.336;12.612;2024-02-26T11:48:19;8.10;;;6.70;;
60060;SDS011;45933;51.336;12.612;2024-02-26T11:50:46;10.65;;;7.13;;
60060;SDS011;45933;51.336;12.612;2024-02-26T11:53:23;9.63;;;6.35;;
60060;SDS011;45933;51.336;12.612;2024-02-26T11:58:43;7.68;;;6.40;;
60060;SDS011;45933;51.336;12.612;2024-02-26T12:06:43;11.98;;;7.50;;
60060;SDS011;45933;51.336;12.612;2024-02-26T12:09:10;10.20;;;7.35;;
60060;SDS011;45933;51.336;12.612;2024-02-26T12:11:39;11.27;;;7.13;;
60060;SDS011;45933;51.336;12.612;2024-02-26T12:14:05;17.25;;;7.25;;
60060;SDS011;45933;51.336;12.612;2024-02-26T12:16:36;9.88;;;6.68;;
60060;SDS011;45933;51.336;12.612;2024-02-26T12:19:06;9.15;;;6.82;;
60060;SDS011;45933;51.336;12.612;2024-02-26T12:21:36;11.55;;;7.25;;
60060;SDS011;45933;51.336;12.612;2024-02-26T12:24:12;9.20;;;6.35;;
60060;SDS011;45933;51.336;12.612;2024-02-26T12:26:40;11.63;;;6.50;;
60060;SDS011;45933;51.336;12.612;2024-02-26T12:29:06;7.40;;;5.88;;
60060;SDS011;45933;51.336;12.612;2024-02-26T12:31:32;9.60;;;6.15;;
60060;SDS011;45933;51.336;12.612;2024-02-26T12:33:59;9.02;;;5.97;;
60060;SDS011;45933;51.336;12.612;2024-02-26T12:36:25;7.47;;;5.50;;
60060;SDS011;45933;51.336;12.612;2024-02-26T12:38:50;8.52;;;5.95;;
60060;SDS011;45933;51.336;12.612;2024-02-26T12:41:16;8.15;;;5.80;;
60060;SDS011;45933;51.336;12.612;2024-02-26T12:43:41;9.30;;;5.68;;
60060;SDS011;45933;51.336;12.612;2024-02-26T12:46:06;6.80;;;5.00;;
60060;SDS011;45933;51.336;12.612;2024-02-26T12:48:32;6.43;;;5.05;;
60060;SDS011;45933;51.336;12.612;2024-02-26T12:50:57;7.10;;;5.57;;
60060;SDS011;45933;51.336;12.612;2024-02-26T12:53:22;6.45;;;5.20;;
60060;SDS011;45933;51.336;12.612;2024-02-26T12:55:48;8.98;;;5.85;;
60060;SDS011;45933;51.336;12.612;2024-02-26T12:58:14;8.35;;;5.25;;
60060;SDS011;45933;51.336;12.612;2024-02-26T13:00:40;10.05;;;6.10;;
60060;SDS011;45933;51.336;12.612;2024-02-26T13:03:06;9.57;;;6.32;;
60060;SDS011;45933;51.336;12.612;2024-02-26T13:05:31;7.85;;;5.97;;
60060;SDS011;45933;51.336;12.612;2024-02-26T13:07:58;9.75;;;6.30;;
60060;SDS011;45933;51.336;12.612;2024-02-26T13:10:23;7.70;;;5.95;;
60060;SDS011;45933;51.336;12.612;2024-02-26T13:12:50;9.15;;;6.63;;
60060;SDS011;45933;51.336;12.612;2024-02-26T13:15:17;11.32;;;5.93;;
60060;SDS011;45933;51.336;12.612;2024-02-26T13:17:44;10.02;;;5.97;;
60060;SDS011;45933;51.336;12.612;2024-02-26T13:20:10;8.93;;;6.05;;
60060;SDS011;45933;51.336;12.612;2024-02-26T13:22:36;10.25;;;6.70;;
60060;SDS011;45933;51.336;12.612;2024-02-26T13:25:02;9.25;;;6.32;;
60060;SDS011;45933;51.336;12.612;2024-02-26T13:27:28;9.63;;;6.25;;
60060;SDS011;45933;51.336;12.612;2024-02-26T13:30:03;9.27;;;6.72;;
60060;SDS011;45933;51.336;12.612;2024-02-26T13:32:35;11.48;;;6.82;;
60060;SDS011;45933;51.336;12.612;2024-02-26T13:35:05;7.93;;;5.97;;
60060;SDS011;45933;51.336;12.612;2024-02-26T13:37:31;9.40;;;6.05;;
60060;SDS011;45933;51.336;12.612;2024-02-26T13:39:56;9.70;;;5.88;;
60060;SDS011;45933;51.336;12.612;2024-02-26T13:42:22;9.07;;;6.97;;
60060;SDS011;45933;51.336;12.612;2024-02-26T13:44:47;10.45;;;6.75;;
60060;SDS011;45933;51.336;12.612;2024-02-26T13:47:12;10.00;;;6.82;;
60060;SDS011;45933;51.336;12.612;2024-02-26T13:49:38;10.18;;;8.35;;
60060;SDS011;45933;51.336;12.612;2024-02-26T13:52:03;10.20;;;6.90;;
60060;SDS011;45933;51.336;12.612;2024-02-26T13:54:28;10.57;;;7.13;;
60060;SDS011;45933;51.336;12.612;2024-02-26T13:56:54;9.80;;;7.07;;
60060;SDS011;45933;51.336;12.612;2024-02-26T13:59:19;9.13;;;6.10;;
60060;SDS011;45933;51.336;12.612;2024-02-26T14:01:44;10.10;;;7.82;;
60060;SDS011;45933;51.336;12.612;2024-02-26T14:04:10;8.93;;;6.90;;
60060;SDS011;45933;51.336;12.612;2024-02-26T14:06:35;9.00;;;4.93;;
60060;SDS011;45933;51.336;12.612;2024-02-26T14:09:00;6.50;;;4.68;;
60060;SDS011;45933;51.336;12.612;2024-02-26T14:11:26;8.40;;;5.20;;
60060;SDS011;45933;51.336;12.612;2024-02-26T14:13:51;7.28;;;4.50;;
60060;SDS011;45933;51.336;12.612;2024-02-26T14:16:17;7.13;;;4.22;;
60060;SDS011;45933;51.336;12.612;2024-02-26T14:18:42;5.03;;;4.03;;
60060;SDS011;45933;51.336;12.612;2024-02-26T14:21:09;7.07;;;4.28;;
60060;SDS011;45933;51.336;12.612;2024-02-26T14:23:35;5.55;;;4.10;;
60060;SDS011;45933;51.336;12.612;2024-02-26T14:26:00;8.27;;;4.50;;